메인 페이지
METAR-TAF:

METAR-TAF

공항 :

이스탄불 이스탄불, 터키

아타튀르크 국제공항

위도: 40-58N, 경도: 028-49E, 고도: 48m

현재 날씨관측

예보는 29분 전, 10:20시(UTC)에 발표되었습니다.
남서6kt풍과 서남서풍을 오가는
온도 21°C
습도 69%
기압 1016 hPa
시정 10km 이상
1500m 미만 상공 구름 및 적란운 없음

METAR: LTBA 251020Z 22006KT 180V250 CAVOK 21/15 Q1016 NOSIG RMK RWY17L 21006KT RWY05 21005KT 190V250 RWY23 22006KT 200V260

시각: 13:49 (10:49 UTC)

예보

예보는 6 시간 9분 전, 04:40시(UTC)에 발표되었습니다.
예보 대상 시간: 25일 06시부터 26일 12시까지 (UTC)
여러 방향의 바람 2kt
시정 10km 이상
1500m 미만 상공 구름 및 적란운 없음
전환 중
25일 14시부터 25일 17시까지 (UTC)
12kt

TAF: LTBA 250440Z 2506/2612 VRB02KT CAVOK BECMG 2514/2517 01012KT

4,000개 이상의 공항 관측 자료 및 예보 (METAR 및 TAF 보고).

지도상에서 검색 가능한 기상관측소가 노란 점과 빨간 점으로 표시되어 있습니다.

기상관측소 명을 보려면 표시 위로 마우스를 이동하세요.

날씨 관측과 예보를 보려면 클릭하세요.

지도 변경 : 확대하려면 엑스 표시가 있는 녹색 버튼, 축소하려면 빼기 표시가 있는 녹색 버튼, 다음 페이지의 지도를 보려면 녹색 화살표를 클릭하세요.


METAR-TAF: